sensor_id;sensor_type;location;lat;lon;timestamp;pressure;altitude;pressure_sealevel;temperature;humidity
14269;BME280;7218;51.480;7.006;2023-05-16T00:00:48;100511.66;;;10.78;100.00
14269;BME280;7218;51.480;7.006;2023-05-16T00:03:17;100511.41;;;10.92;100.00
14269;BME280;7218;51.480;7.006;2023-05-16T00:05:44;100522.25;;;10.69;100.00
14269;BME280;7218;51.480;7.006;2023-05-16T00:08:11;100522.25;;;10.67;100.00
14269;BME280;7218;51.480;7.006;2023-05-16T00:10:39;100524.16;;;10.58;100.00
14269;BME280;7218;51.480;7.006;2023-05-16T00:13:05;100522.41;;;10.58;100.00
14269;BME280;7218;51.480;7.006;2023-05-16T00:15:32;100525.94;;;10.56;100.00
14269;BME280;7218;51.480;7.006;2023-05-16T00:17:58;100525.75;;;10.66;100.00
14269;BME280;7218;51.480;7.006;2023-05-16T00:20:25;100523.13;;;10.68;100.00
14269;BME280;7218;51.480;7.006;2023-05-16T00:22:52;100527.47;;;10.67;100.00
14269;BME280;7218;51.480;7.006;2023-05-16T00:25:19;100534.28;;;10.76;100.00
14269;BME280;7218;51.480;7.006;2023-05-16T00:27:47;100533.81;;;10.51;100.00
14269;BME280;7218;51.480;7.006;2023-05-16T00:30:13;100534.72;;;10.49;100.00
14269;BME280;7218;51.480;7.006;2023-05-16T00:32:40;100528.16;;;10.23;100.00
14269;BME280;7218;51.480;7.006;2023-05-16T00:35:06;100535.59;;;10.48;100.00
14269;BME280;7218;51.480;7.006;2023-05-16T00:37:35;100535.75;;;10.37;100.00
14269;BME280;7218;51.480;7.006;2023-05-16T00:40:01;100540.59;;;9.99;100.00
14269;BME280;7218;51.480;7.006;2023-05-16T00:42:29;100533.72;;;9.96;100.00
14269;BME280;7218;51.480;7.006;2023-05-16T00:44:57;100536.13;;;10.08;100.00
14269;BME280;7218;51.480;7.006;2023-05-16T00:47:23;100540.41;;;10.12;100.00
14269;BME280;7218;51.480;7.006;2023-05-16T00:49:49;100536.19;;;10.04;100.00
14269;BME280;7218;51.480;7.006;2023-05-16T00:52:16;100542.41;;;9.92;100.00
14269;BME280;7218;51.480;7.006;2023-05-16T00:54:43;100546.63;;;10.04;100.00
14269;BME280;7218;51.480;7.006;2023-05-16T00:57:09;100549.09;;;10.11;100.00
14269;BME280;7218;51.480;7.006;2023-05-16T00:59:36;100545.25;;;9.72;100.00
14269;BME280;7218;51.480;7.006;2023-05-16T01:02:05;100545.88;;;9.94;100.00
14269;BME280;7218;51.480;7.006;2023-05-16T01:04:32;100553.06;;;9.72;100.00
14269;BME280;7218;51.480;7.006;2023-05-16T01:06:59;100550.56;;;9.66;100.00
14269;BME280;7218;51.480;7.006;2023-05-16T01:09:26;100542.94;;;9.49;100.00
14269;BME280;7218;51.480;7.006;2023-05-16T01:11:58;100539.19;;;9.75;100.00
14269;BME280;7218;51.480;7.006;2023-05-16T01:14:35;100549.47;;;9.84;100.00
14269;BME280;7218;51.480;7.006;2023-05-16T01:17:07;100554.63;;;9.88;100.00
14269;BME280;7218;51.480;7.006;2023-05-16T01:19:49;100561.75;;;9.76;100.00
14269;BME280;7218;51.480;7.006;2023-05-16T01:22:28;100558.28;;;9.72;100.00
14269;BME280;7218;51.480;7.006;2023-05-16T01:25:05;100564.41;;;9.70;100.00
14269;BME280;7218;51.480;7.006;2023-05-16T01:27:34;100575.75;;;9.63;100.00
14269;BME280;7218;51.480;7.006;2023-05-16T01:30:12;100579.06;;;9.77;100.00
14269;BME280;7218;51.480;7.006;2023-05-16T01:32:39;100583.56;;;9.66;100.00
14269;BME280;7218;51.480;7.006;2023-05-16T01:35:07;100587.78;;;9.76;100.00
14269;BME280;7218;51.480;7.006;2023-05-16T01:37:41;100586.81;;;9.84;100.00
14269;BME280;7218;51.480;7.006;2023-05-16T01:40:13;100590.50;;;9.65;100.00
14269;BME280;7218;51.480;7.006;2023-05-16T01:42:44;100590.44;;;9.70;100.00
14269;BME280;7218;51.480;7.006;2023-05-16T01:45:17;100595.66;;;9.70;100.00
14269;BME280;7218;51.480;7.006;2023-05-16T01:47:51;100607.00;;;9.63;100.00
14269;BME280;7218;51.480;7.006;2023-05-16T01:50:21;100595.91;;;9.44;100.00
14269;BME280;7218;51.480;7.006;2023-05-16T01:52:55;100608.78;;;9.58;100.00
14269;BME280;7218;51.480;7.006;2023-05-16T01:55:29;100607.19;;;9.46;100.00
14269;BME280;7218;51.480;7.006;2023-05-16T01:58:01;100609.59;;;9.63;100.00
14269;BME280;7218;51.480;7.006;2023-05-16T02:00:29;100608.97;;;9.39;100.00
14269;BME280;7218;51.480;7.006;2023-05-16T02:02:56;100611.56;;;9.41;100.00
14269;BME280;7218;51.480;7.006;2023-05-16T02:05:23;100608.94;;;9.42;100.00
14269;BME280;7218;51.480;7.006;2023-05-16T02:07:49;100619.34;;;9.45;100.00
14269;BME280;7218;51.480;7.006;2023-05-16T02:10:16;100614.03;;;9.51;100.00
14269;BME280;7218;51.480;7.006;2023-05-16T02:12:43;100613.94;;;9.64;100.00
14269;BME280;7218;51.480;7.006;2023-05-16T02:15:11;100625.97;;;9.74;100.00
14269;BME280;7218;51.480;7.006;2023-05-16T02:17:38;100614.03;;;9.51;100.00
14269;BME280;7218;51.480;7.006;2023-05-16T02:20:06;100613.97;;;9.59;100.00
14269;BME280;7218;51.480;7.006;2023-05-16T02:22:34;100617.47;;;9.57;100.00
14269;BME280;7218;51.480;7.006;2023-05-16T02:25:02;100616.81;;;9.32;100.00
14269;BME280;7218;51.480;7.006;2023-05-16T02:27:28;100621.13;;;9.40;100.00
14269;BME280;7218;51.480;7.006;2023-05-16T02:29:55;100626.38;;;9.34;100.00
14269;BME280;7218;51.480;7.006;2023-05-16T02:32:22;100629.84;;;9.35;100.00
14269;BME280;7218;51.480;7.006;2023-05-16T02:34:50;100634.91;;;9.48;100.00
14269;BME280;7218;51.480;7.006;2023-05-16T02:37:17;100640.06;;;9.51;100.00
14269;BME280;7218;51.480;7.006;2023-05-16T02:39:43;100630.53;;;9.54;100.00
14269;BME280;7218;51.480;7.006;2023-05-16T02:42:10;100641.25;;;9.20;100.00
14269;BME280;7218;51.480;7.006;2023-05-16T02:44:36;100644.66;;;9.25;100.00
14269;BME280;7218;51.480;7.006;2023-05-16T02:47:03;100652.50;;;9.21;100.00
14269;BME280;7218;51.480;7.006;2023-05-16T02:49:31;100652.38;;;9.34;100.00
14269;BME280;7218;51.480;7.006;2023-05-16T02:51:57;100647.31;;;9.19;100.00
14269;BME280;7218;51.480;7.006;2023-05-16T02:54:24;100653.38;;;9.18;100.00
14269;BME280;7218;51.480;7.006;2023-05-16T02:56:50;100667.34;;;9.08;100.00
14269;BME280;7218;51.480;7.006;2023-05-16T02:59:17;100662.06;;;9.19;100.00
14269;BME280;7218;51.480;7.006;2023-05-16T03:01:43;100675.97;;;9.16;100.00
14269;BME280;7218;51.480;7.006;2023-05-16T03:04:10;100666.59;;;8.88;100.00
14269;BME280;7218;51.480;7.006;2023-05-16T03:06:37;100670.72;;;9.19;100.00
14269;BME280;7218;51.480;7.006;2023-05-16T03:09:07;100676.06;;;8.99;100.00
14269;BME280;7218;51.480;7.006;2023-05-16T03:11:56;100678.03;;;8.58;100.00
14269;BME280;7218;51.480;7.006;2023-05-16T03:14:23;100684.94;;;8.65;100.00
14269;BME280;7218;51.480;7.006;2023-05-16T03:16:50;100677.22;;;8.48;100.00
14269;BME280;7218;51.480;7.006;2023-05-16T03:19:16;100687.66;;;8.29;100.00
14269;BME280;7218;51.480;7.006;2023-05-16T03:21:45;100698.84;;;8.55;100.00
14269;BME280;7218;51.480;7.006;2023-05-16T03:24:11;100698.91;;;8.46;100.00
14269;BME280;7218;51.480;7.006;2023-05-16T03:26:38;100688.44;;;8.58;100.00
14269;BME280;7218;51.480;7.006;2023-05-16T03:29:04;100698.00;;;8.56;100.00
14269;BME280;7218;51.480;7.006;2023-05-16T03:31:31;100700.53;;;8.67;100.00
14269;BME280;7218;51.480;7.006;2023-05-16T03:33:57;100699.78;;;8.33;100.00
14269;BME280;7218;51.480;7.006;2023-05-16T03:36:24;100701.47;;;8.49;100.00
14269;BME280;7218;51.480;7.006;2023-05-16T03:38:52;100701.41;;;8.66;100.00
14269;BME280;7218;51.480;7.006;2023-05-16T03:41:18;100705.84;;;8.45;100.00
14269;BME280;7218;51.480;7.006;2023-05-16T03:43:45;100707.59;;;8.42;100.00
14269;BME280;7218;51.480;7.006;2023-05-16T03:46:11;100713.69;;;8.30;100.00
14269;BME280;7218;51.480;7.006;2023-05-16T03:48:38;100709.31;;;8.38;100.00
14269;BME280;7218;51.480;7.006;2023-05-16T03:51:05;100718.81;;;8.51;100.00
14269;BME280;7218;51.480;7.006;2023-05-16T03:53:31;100726.59;;;8.54;100.00
14269;BME280;7218;51.480;7.006;2023-05-16T03:55:59;100727.44;;;8.56;100.00
14269;BME280;7218;51.480;7.006;2023-05-16T03:58:25;100731.78;;;8.54;100.00
14269;BME280;7218;51.480;7.006;2023-05-16T04:00:52;100728.34;;;8.49;100.00
14269;BME280;7218;51.480;7.006;2023-05-16T04:03:18;100736.16;;;8.46;100.00
14269;BME280;7218;51.480;7.006;2023-05-16T04:05:45;100741.31;;;8.49;100.00
14269;BME280;7218;51.480;7.006;2023-05-16T04:08:11;100739.59;;;8.48;100.00
14269;BME280;7218;51.480;7.006;2023-05-16T04:10:38;100742.22;;;8.44;100.00
14269;BME280;7218;51.480;7.006;2023-05-16T04:13:06;100747.38;;;8.54;100.00
14269;BME280;7218;51.480;7.006;2023-05-16T04:15:32;100748.28;;;8.32;100.00
14269;BME280;7218;51.480;7.006;2023-05-16T04:17:59;100756.09;;;8.20;100.00
14269;BME280;7218;51.480;7.006;2023-05-16T04:20:25;100750.00;;;8.27;100.00
14269;BME280;7218;51.480;7.006;2023-05-16T04:22:52;100761.28;;;8.26;100.00
14269;BME280;7218;51.480;7.006;2023-05-16T04:25:18;100757.81;;;8.22;100.00
14269;BME280;7218;51.480;7.006;2023-05-16T04:27:48;100766.47;;;8.25;100.00
14269;BME280;7218;51.480;7.006;2023-05-16T04:30:18;100770.78;;;8.27;100.00
14269;BME280;7218;51.480;7.006;2023-05-16T04:32:44;100769.97;;;8.04;100.00
14269;BME280;7218;51.480;7.006;2023-05-16T04:35:11;100763.06;;;8.10;100.00
14269;BME280;7218;51.480;7.006;2023-05-16T04:37:37;100775.19;;;7.99;100.00
14269;BME280;7218;51.480;7.006;2023-05-16T04:40:04;100777.75;;;8.17;100.00
14269;BME280;7218;51.480;7.006;2023-05-16T04:42:31;100778.66;;;7.94;100.00
14269;BME280;7218;51.480;7.006;2023-05-16T04:44:58;100784.69;;;8.05;100.00
14269;BME280;7218;51.480;7.006;2023-05-16T04:47:26;100785.56;;;8.07;100.00
14269;BME280;7218;51.480;7.006;2023-05-16T04:49:53;100800.28;;;7.90;100.00
14269;BME280;7218;51.480;7.006;2023-05-16T04:52:19;100796.81;;;7.95;100.00
14269;BME280;7218;51.480;7.006;2023-05-16T04:54:46;100797.69;;;8.00;100.00
14269;BME280;7218;51.480;7.006;2023-05-16T04:57:15;100789.88;;;8.08;100.00
14269;BME280;7218;51.480;7.006;2023-05-16T04:59:42;100795.09;;;8.03;100.00
14269;BME280;7218;51.480;7.006;2023-05-16T05:02:08;100801.16;;;7.69;100.00
14269;BME280;7218;51.480;7.006;2023-05-16T05:04:36;100811.53;;;8.13;100.00
14269;BME280;7218;51.480;7.006;2023-05-16T05:07:03;100807.19;;;8.09;100.00
14269;BME280;7218;51.480;7.006;2023-05-16T05:09:30;100799.41;;;8.09;100.00
14269;BME280;7218;51.480;7.006;2023-05-16T05:11:56;100817.63;;;7.82;100.00
14269;BME280;7218;51.480;7.006;2023-05-16T05:14:23;100819.34;;;7.86;100.00
14269;BME280;7218;51.480;7.006;2023-05-16T05:16:49;100818.47;;;7.94;100.00
14269;BME280;7218;51.480;7.006;2023-05-16T05:19:16;100816.72;;;7.93;100.00
14269;BME280;7218;51.480;7.006;2023-05-16T05:21:44;100817.59;;;8.15;100.00
14269;BME280;7218;51.480;7.006;2023-05-16T05:24:10;100819.31;;;7.98;100.00
14269;BME280;7218;51.480;7.006;2023-05-16T05:26:37;100822.78;;;7.78;100.00
14269;BME280;7218;51.480;7.006;2023-05-16T05:29:03;100828.00;;;7.97;100.00
14269;BME280;7218;51.480;7.006;2023-05-16T05:31:30;100828.81;;;8.17;100.00
14269;BME280;7218;51.480;7.006;2023-05-16T05:33:57;100825.38;;;8.26;100.00
14269;BME280;7218;51.480;7.006;2023-05-16T05:36:25;100836.63;;;8.44;100.00
14269;BME280;7218;51.480;7.006;2023-05-16T05:38:53;100839.25;;;8.41;100.00
14269;BME280;7218;51.480;7.006;2023-05-16T05:41:19;100837.50;;;8.49;100.00
14269;BME280;7218;51.480;7.006;2023-05-16T05:43:46;100841.81;;;8.59;100.00
14269;BME280;7218;51.480;7.006;2023-05-16T05:46:13;100835.72;;;8.59;100.00
14269;BME280;7218;51.480;7.006;2023-05-16T05:48:39;100843.53;;;8.67;100.00
14269;BME280;7218;51.480;7.006;2023-05-16T05:51:05;100845.25;;;8.58;100.00
14269;BME280;7218;51.480;7.006;2023-05-16T05:53:32;100844.38;;;8.64;100.00
14269;BME280;7218;51.480;7.006;2023-05-16T05:56:00;100840.88;;;8.77;100.00
14269;BME280;7218;51.480;7.006;2023-05-16T05:58:26;100849.59;;;8.66;100.00
14269;BME280;7218;51.480;7.006;2023-05-16T06:00:53;100846.06;;;8.83;100.00
14269;BME280;7218;51.480;7.006;2023-05-16T06:03:19;100847.78;;;8.83;100.00
14269;BME280;7218;51.480;7.006;2023-05-16T06:05:46;100854.66;;;9.02;100.00
14269;BME280;7218;51.480;7.006;2023-05-16T06:08:13;100858.97;;;9.15;100.00
14269;BME280;7218;51.480;7.006;2023-05-16T06:10:39;100858.94;;;9.17;100.00
14269;BME280;7218;51.480;7.006;2023-05-16T06:13:07;100861.47;;;9.33;100.00
14269;BME280;7218;51.480;7.006;2023-05-16T06:15:33;100855.47;;;9.13;100.00
14269;BME280;7218;51.480;7.006;2023-05-16T06:18:00;100856.41;;;8.98;100.00
14269;BME280;7218;51.480;7.006;2023-05-16T06:20:26;100864.13;;;9.24;100.00
14269;BME280;7218;51.480;7.006;2023-05-16T06:22:53;100854.44;;;9.47;100.00
14269;BME280;7218;51.480;7.006;2023-05-16T06:25:19;100863.06;;;9.57;100.00
14269;BME280;7218;51.480;7.006;2023-05-16T06:27:46;100866.44;;;9.73;100.00
14269;BME280;7218;51.480;7.006;2023-05-16T06:30:14;100867.31;;;9.75;100.00
14269;BME280;7218;51.480;7.006;2023-05-16T06:32:41;100866.59;;;9.48;100.00
14269;BME280;7218;51.480;7.006;2023-05-16T06:35:08;100864.88;;;9.44;100.00
14269;BME280;7218;51.480;7.006;2023-05-16T06:37:35;100873.53;;;9.49;96.77
14269;BME280;7218;51.480;7.006;2023-05-16T06:40:01;100873.53;;;9.49;97.65
14269;BME280;7218;51.480;7.006;2023-05-16T06:42:27;100873.44;;;9.63;96.52
14269;BME280;7218;51.480;7.006;2023-05-16T06:44:54;100883.00;;;9.63;96.96
14269;BME280;7218;51.480;7.006;2023-05-16T06:47:22;100881.97;;;9.89;95.13
14269;BME280;7218;51.480;7.006;2023-05-16T06:49:48;100877.63;;;9.87;93.88
14269;BME280;7218;51.480;7.006;2023-05-16T06:52:15;100885.31;;;10.02;96.39
14269;BME280;7218;51.480;7.006;2023-05-16T06:54:41;100877.59;;;9.93;96.03
14269;BME280;7218;51.480;7.006;2023-05-16T06:57:08;100883.66;;;9.93;92.84
14269;BME280;7218;51.480;7.006;2023-05-16T06:59:34;100879.28;;;9.97;93.10
14269;BME280;7218;51.480;7.006;2023-05-16T07:02:01;100885.19;;;10.25;93.89
14269;BME280;7218;51.480;7.006;2023-05-16T07:04:29;100873.72;;;10.43;91.63
14269;BME280;7218;51.480;7.006;2023-05-16T07:06:55;100877.06;;;10.57;91.96
14269;BME280;7218;51.480;7.006;2023-05-16T07:09:22;100878.59;;;10.79;91.44
14269;BME280;7218;51.480;7.006;2023-05-16T07:11:48;100885.28;;;11.01;91.57
14269;BME280;7218;51.480;7.006;2023-05-16T07:14:15;100873.78;;;11.19;91.88
14269;BME280;7218;51.480;7.006;2023-05-16T07:16:41;100882.63;;;11.07;88.01
14269;BME280;7218;51.480;7.006;2023-05-16T07:19:08;100874.72;;;11.15;85.70
14269;BME280;7218;51.480;7.006;2023-05-16T07:21:36;100876.25;;;11.30;85.78
14269;BME280;7218;51.480;7.006;2023-05-16T07:24:03;100868.63;;;11.11;82.83
14269;BME280;7218;51.480;7.006;2023-05-16T07:26:29;100882.06;;;10.78;84.12
14269;BME280;7218;51.480;7.006;2023-05-16T07:28:56;100883.81;;;10.77;81.50
14269;BME280;7218;51.480;7.006;2023-05-16T07:31:22;100891.63;;;10.79;81.26
14269;BME280;7218;51.480;7.006;2023-05-16T07:33:49;100888.00;;;10.94;81.97
14269;BME280;7218;51.480;7.006;2023-05-16T07:36:16;100894.34;;;10.67;76.79
14269;BME280;7218;51.480;7.006;2023-05-16T07:38:43;100884.88;;;10.60;77.84
14269;BME280;7218;51.480;7.006;2023-05-16T07:41:10;100894.59;;;10.43;79.10
14269;BME280;7218;51.480;7.006;2023-05-16T07:43:37;100890.94;;;10.62;77.64
14269;BME280;7218;51.480;7.006;2023-05-16T07:46:04;100898.78;;;10.60;75.22
14269;BME280;7218;51.480;7.006;2023-05-16T07:48:30;100886.44;;;10.76;75.08
14269;BME280;7218;51.480;7.006;2023-05-16T07:50:57;100892.47;;;10.81;73.78
14269;BME280;7218;51.480;7.006;2023-05-16T07:53:23;100886.97;;;11.07;73.50
14269;BME280;7218;51.480;7.006;2023-05-16T07:55:51;100887.78;;;11.12;73.16
14269;BME280;7218;51.480;7.006;2023-05-16T07:58:18;100900.56;;;11.35;73.79
14269;BME280;7218;51.480;7.006;2023-05-16T08:00:44;100893.59;;;11.34;70.92
14269;BME280;7218;51.480;7.006;2023-05-16T08:03:11;100895.22;;;11.42;72.21
14269;BME280;7218;51.480;7.006;2023-05-16T08:05:37;100898.50;;;11.58;70.07
14269;BME280;7218;51.480;7.006;2023-05-16T08:08:04;100897.00;;;11.40;70.92
14269;BME280;7218;51.480;7.006;2023-05-16T08:10:31;100898.34;;;11.70;65.34
14269;BME280;7218;51.480;7.006;2023-05-16T08:12:59;100897.88;;;12.03;65.91
14269;BME280;7218;51.480;7.006;2023-05-16T08:15:26;100901.88;;;12.26;65.69
14269;BME280;7218;51.480;7.006;2023-05-16T08:17:55;100895.72;;;12.30;62.83
14269;BME280;7218;51.480;7.006;2023-05-16T08:20:25;100888.25;;;12.58;65.05
14269;BME280;7218;51.480;7.006;2023-05-16T08:22:52;100893.69;;;12.45;63.57
14269;BME280;7218;51.480;7.006;2023-05-16T08:25:18;100896.72;;;12.70;64.69
14269;BME280;7218;51.480;7.006;2023-05-16T08:27:45;100898.56;;;13.14;65.09
14269;BME280;7218;51.480;7.006;2023-05-16T08:30:13;100900.47;;;13.03;61.49
14269;BME280;7218;51.480;7.006;2023-05-16T08:32:40;100894.97;;;12.72;60.36
14269;BME280;7218;51.480;7.006;2023-05-16T08:35:07;100895.94;;;12.65;61.44
14269;BME280;7218;51.480;7.006;2023-05-16T08:37:35;100900.28;;;12.66;62.82
14269;BME280;7218;51.480;7.006;2023-05-16T08:40:03;100890.66;;;13.16;61.18
14269;BME280;7218;51.480;7.006;2023-05-16T08:42:30;100891.19;;;13.31;60.86
14269;BME280;7218;51.480;7.006;2023-05-16T08:44:56;100899.94;;;13.30;57.14
14269;BME280;7218;51.480;7.006;2023-05-16T08:47:25;100891.50;;;13.59;56.40
14269;BME280;7218;51.480;7.006;2023-05-16T08:49:56;100897.88;;;13.46;56.63
14269;BME280;7218;51.480;7.006;2023-05-16T08:52:25;100888.09;;;13.14;57.38
14269;BME280;7218;51.480;7.006;2023-05-16T08:54:55;100899.44;;;13.10;60.39
14269;BME280;7218;51.480;7.006;2023-05-16T08:57:22;100902.81;;;13.20;60.32
14269;BME280;7218;51.480;7.006;2023-05-16T08:59:50;100904.25;;;13.34;55.66
14269;BME280;7218;51.480;7.006;2023-05-16T09:02:18;100906.53;;;13.90;57.59
14269;BME280;7218;51.480;7.006;2023-05-16T09:04:48;100901.53;;;14.51;55.43
14269;BME280;7218;51.480;7.006;2023-05-16T09:07:14;100903.50;;;14.77;53.50
14269;BME280;7218;51.480;7.006;2023-05-16T09:09:41;100903.53;;;14.76;53.24
14269;BME280;7218;51.480;7.006;2023-05-16T09:12:08;100900.06;;;14.41;55.94
14269;BME280;7218;51.480;7.006;2023-05-16T09:14:36;100905.47;;;14.34;55.10
14269;BME280;7218;51.480;7.006;2023-05-16T09:17:03;100896.16;;;14.20;51.99
14269;BME280;7218;51.480;7.006;2023-05-16T09:19:36;100896.38;;;14.13;53.65
14269;BME280;7218;51.480;7.006;2023-05-16T09:22:05;100903.16;;;14.20;51.20
14269;BME280;7218;51.480;7.006;2023-05-16T09:24:31;100896.22;;;13.80;53.42
14269;BME280;7218;51.480;7.006;2023-05-16T09:27:06;100894.34;;;14.24;51.92
14269;BME280;7218;51.480;7.006;2023-05-16T09:29:33;100891.63;;;14.27;53.00
14269;BME280;7218;51.480;7.006;2023-05-16T09:32:04;100885.25;;;14.02;54.00
14269;BME280;7218;51.480;7.006;2023-05-16T09:34:37;100893.75;;;14.13;52.57
14269;BME280;7218;51.480;7.006;2023-05-16T09:37:05;100893.13;;;14.02;52.79
14269;BME280;7218;51.480;7.006;2023-05-16T09:39:31;100896.22;;;13.80;51.65
14269;BME280;7218;51.480;7.006;2023-05-16T09:41:58;100896.00;;;13.53;52.10
14269;BME280;7218;51.480;7.006;2023-05-16T09:44:25;100891.97;;;14.13;52.05
14269;BME280;7218;51.480;7.006;2023-05-16T09:46:52;100882.69;;;15.02;53.41
14269;BME280;7218;51.480;7.006;2023-05-16T09:49:19;100889.34;;;14.83;47.36
14269;BME280;7218;51.480;7.006;2023-05-16T09:51:46;100887.72;;;14.79;48.74
14269;BME280;7218;51.480;7.006;2023-05-16T09:54:14;100897.75;;;14.28;51.47
14269;BME280;7218;51.480;7.006;2023-05-16T09:56:50;100903.22;;;13.82;50.71
14269;BME280;7218;51.480;7.006;2023-05-16T09:59:16;100897.69;;;13.14;52.68
14269;BME280;7218;51.480;7.006;2023-05-16T10:01:43;100897.69;;;13.14;54.77
14269;BME280;7218;51.480;7.006;2023-05-16T10:04:10;100891.50;;;13.16;56.55
14269;BME280;7218;51.480;7.006;2023-05-16T10:06:40;100897.22;;;13.35;54.46
14269;BME280;7218;51.480;7.006;2023-05-16T10:09:10;100900.16;;;13.61;55.53
14269;BME280;7218;51.480;7.006;2023-05-16T10:11:44;100898.84;;;12.98;55.60
14269;BME280;7218;51.480;7.006;2023-05-16T10:14:12;100896.06;;;13.50;56.68
14269;BME280;7218;51.480;7.006;2023-05-16T10:16:46;100893.38;;;13.91;55.28
14269;BME280;7218;51.480;7.006;2023-05-16T10:19:15;100898.50;;;13.96;55.45
14269;BME280;7218;51.480;7.006;2023-05-16T10:21:45;100903.06;;;13.88;53.21
14269;BME280;7218;51.480;7.006;2023-05-16T10:24:17;100896.44;;;14.45;52.35
14269;BME280;7218;51.480;7.006;2023-05-16T10:26:49;100892.28;;;14.71;52.20
14269;BME280;7218;51.480;7.006;2023-05-16T10:29:18;100899.25;;;14.72;52.07
14269;BME280;7218;51.480;7.006;2023-05-16T10:31:45;100893.38;;;14.28;53.70
14269;BME280;7218;51.480;7.006;2023-05-16T10:34:12;100900.84;;;14.08;54.24
14269;BME280;7218;51.480;7.006;2023-05-16T10:36:39;100893.38;;;14.63;54.42
14269;BME280;7218;51.480;7.006;2023-05-16T10:39:06;100886.56;;;14.89;54.11
14269;BME280;7218;51.480;7.006;2023-05-16T10:41:33;100889.41;;;15.12;52.73
14269;BME280;7218;51.480;7.006;2023-05-16T10:44:01;100888.06;;;14.65;54.17
14269;BME280;7218;51.480;7.006;2023-05-16T10:46:30;100888.00;;;15.30;54.54
14269;BME280;7218;51.480;7.006;2023-05-16T10:48:56;100879.59;;;15.19;55.58
14269;BME280;7218;51.480;7.006;2023-05-16T10:51:34;100872.16;;;15.33;53.49
14269;BME280;7218;51.480;7.006;2023-05-16T10:54:04;100878.56;;;16.09;55.04
14269;BME280;7218;51.480;7.006;2023-05-16T10:56:31;100866.66;;;16.50;50.49
14269;BME280;7218;51.480;7.006;2023-05-16T10:58:58;100869.56;;;16.43;50.13
14269;BME280;7218;51.480;7.006;2023-05-16T11:01:31;100873.31;;;16.35;48.21
14269;BME280;7218;51.480;7.006;2023-05-16T11:04:03;100875.63;;;16.71;48.80
14269;BME280;7218;51.480;7.006;2023-05-16T11:06:31;100867.72;;;16.96;47.38
14269;BME280;7218;51.480;7.006;2023-05-16T11:09:05;100873.16;;;16.66;46.66
14269;BME280;7218;51.480;7.006;2023-05-16T11:11:41;100871.09;;;16.74;48.15
14269;BME280;7218;51.480;7.006;2023-05-16T11:14:08;100872.88;;;16.74;46.44
14269;BME280;7218;51.480;7.006;2023-05-16T11:16:38;100873.28;;;17.11;45.64
14269;BME280;7218;51.480;7.006;2023-05-16T11:19:05;100874.84;;;17.63;45.61
14269;BME280;7218;51.480;7.006;2023-05-16T11:22:05;100875.22;;;18.20;39.98
14269;BME280;7218;51.480;7.006;2023-05-16T11:24:32;100872.94;;;18.93;39.44
14269;BME280;7218;51.480;7.006;2023-05-16T11:26:59;100882.38;;;18.38;41.25
14269;BME280;7218;51.480;7.006;2023-05-16T11:29:27;100882.16;;;17.79;43.49
14269;BME280;7218;51.480;7.006;2023-05-16T11:31:57;100890.84;;;16.88;43.86
14269;BME280;7218;51.480;7.006;2023-05-16T11:34:23;100887.97;;;15.62;46.18
14269;BME280;7218;51.480;7.006;2023-05-16T11:36:50;100902.88;;;14.68;50.84
14269;BME280;7218;51.480;7.006;2023-05-16T11:39:16;100897.63;;;14.68;53.58
14269;BME280;7218;51.480;7.006;2023-05-16T11:41:43;100912.41;;;14.38;56.42
14269;BME280;7218;51.480;7.006;2023-05-16T11:44:10;100915.22;;;14.29;55.26
14269;BME280;7218;51.480;7.006;2023-05-16T11:46:38;100906.94;;;15.72;50.86
14269;BME280;7218;51.480;7.006;2023-05-16T11:49:06;100902.34;;;16.60;43.82
14269;BME280;7218;51.480;7.006;2023-05-16T11:51:33;100903.94;;;17.84;42.83
14269;BME280;7218;51.480;7.006;2023-05-16T11:54:01;100892.56;;;18.47;40.04
14269;BME280;7218;51.480;7.006;2023-05-16T11:56:29;100891.13;;;17.96;38.79
14269;BME280;7218;51.480;7.006;2023-05-16T11:58:56;100889.63;;;18.75;38.55
14269;BME280;7218;51.480;7.006;2023-05-16T12:01:23;100889.28;;;17.98;38.69
14269;BME280;7218;51.480;7.006;2023-05-16T12:03:54;100884.56;;;17.63;40.71
14269;BME280;7218;51.480;7.006;2023-05-16T12:06:22;100880.91;;;18.73;39.29
14269;BME280;7218;51.480;7.006;2023-05-16T12:08:49;100872.88;;;18.95;38.03
14269;BME280;7218;51.480;7.006;2023-05-16T12:11:16;100883.56;;;18.51;37.68
14269;BME280;7218;51.480;7.006;2023-05-16T12:13:42;100885.84;;;18.60;38.28
14269;BME280;7218;51.480;7.006;2023-05-16T12:16:10;100893.16;;;18.12;40.38
14269;BME280;7218;51.480;7.006;2023-05-16T12:18:37;100887.94;;;17.18;42.73
14269;BME280;7218;51.480;7.006;2023-05-16T12:21:04;100880.59;;;17.28;43.18
14269;BME280;7218;51.480;7.006;2023-05-16T12:23:33;100880.41;;;16.60;43.29
14269;BME280;7218;51.480;7.006;2023-05-16T12:25:59;100877.78;;;16.07;45.74
14269;BME280;7218;51.480;7.006;2023-05-16T12:28:30;100876.75;;;16.11;50.36
14269;BME280;7218;51.480;7.006;2023-05-16T12:30:58;100880.34;;;15.81;49.20
14269;BME280;7218;51.480;7.006;2023-05-16T12:33:24;100877.16;;;16.25;48.17
14269;BME280;7218;51.480;7.006;2023-05-16T12:35:51;100878.75;;;18.62;43.16
14269;BME280;7218;51.480;7.006;2023-05-16T12:38:19;100870.97;;;19.74;38.58
14269;BME280;7218;51.480;7.006;2023-05-16T12:40:47;100864.75;;;19.75;40.14
14269;BME280;7218;51.480;7.006;2023-05-16T12:43:14;100885.03;;;18.38;42.49
14269;BME280;7218;51.480;7.006;2023-05-16T12:45:41;100880.81;;;19.33;39.62
14269;BME280;7218;51.480;7.006;2023-05-16T12:48:11;100875.88;;;20.37;36.42
14269;BME280;7218;51.480;7.006;2023-05-16T12:50:38;100879.88;;;19.16;35.03
14269;BME280;7218;51.480;7.006;2023-05-16T12:53:09;100882.69;;;18.92;39.59
14269;BME280;7218;51.480;7.006;2023-05-16T12:55:38;100886.09;;;19.72;36.10
14269;BME280;7218;51.480;7.006;2023-05-16T12:58:07;100885.75;;;20.85;32.37
14269;BME280;7218;51.480;7.006;2023-05-16T13:00:34;100876.38;;;21.61;31.45
14269;BME280;7218;51.480;7.006;2023-05-16T13:03:02;100873.91;;;23.08;30.46